ロサンゼルス の空港の天気 - METARとTAF

ロサンゼルス国際空港 ( KLAX / LAX ) - アメリカ カリフォルニア州ロサンゼルス
飛行場実況気象(Metar)
観測時間11/20 00:53 PST (11/20 08:53 UTC)
風向・風速東南東 3m/s
視程10km以上
天気現象
少しの雲 雲底高度 7620m
気温13.3℃
湿度84%
気圧1016hPa
METARKLAX 200853Z 11005KT 10SM FEW250 13/11 A3001 RMK AO2 SLP160 T01330106 55002 $
過去の天気等 Google飛行場航空写真 Wunderground天気予報

過去48時間のMETAR

飛行場予報(TAF)
発表時間: 11/20 00:40 PST (11/20 08:40 UTC)
予報対象時間: 20日1時 PST ~ 21日4時 PST
風向・風速不定 2m/s
視程10km以上
全天の8割程度の雲 雲底高度 7,620m
20日12時 PST から
風向・風速西 5m/s
視程10km以上
全天の4割程度の雲 雲底高度 7,620m
20日19時 PST から
風向・風速西 2m/s
視程10km以上
全天の4割程度の雲 雲底高度 7,620m
KLAX 200840Z 2009/2112 VRB03KT P6SM BKN250
FM202000 26010KT P6SM SCT250
FM210300 27004KT P6SM SCT250